createdAt,value
2022-09-15T00:04:39.887Z,1.27
2022-09-15T00:07:24.384Z,1.90
2022-09-15T00:10:08.970Z,1.98
2022-09-15T00:12:52.011Z,1.88
2022-09-15T00:15:34.952Z,1.75
2022-09-15T00:18:18.559Z,2.63
2022-09-15T00:21:05.911Z,1.33
2022-09-15T00:23:51.035Z,0.90
2022-09-15T00:26:34.192Z,1.20
2022-09-15T00:29:17.265Z,2.70
2022-09-15T00:32:00.213Z,1.73
2022-09-15T00:34:43.320Z,1.30
2022-09-15T00:37:27.179Z,1.30
2022-09-15T00:40:12.036Z,1.33
2022-09-15T00:42:55.122Z,2.72
2022-09-15T00:45:38.180Z,1.42
2022-09-15T00:48:23.503Z,1.73
2022-09-15T00:51:09.562Z,1.90
2022-09-15T00:53:53.876Z,1.48
2022-09-15T00:56:39.699Z,2.42
2022-09-15T00:59:25.621Z,1.75
2022-09-15T01:02:14.231Z,3.28
2022-09-15T01:04:59.020Z,3.15
2022-09-15T01:07:47.217Z,3.03
2022-09-15T01:10:31.982Z,2.55
2022-09-15T01:16:08.055Z,2.60
2022-09-15T01:18:57.432Z,6.22
2022-09-15T01:21:46.245Z,3.33
2022-09-15T01:24:59.519Z,3.45
2022-09-15T01:28:01.515Z,2.75
2022-09-15T01:30:51.478Z,2.33
2022-09-15T01:33:43.380Z,3.15
2022-09-15T01:36:35.001Z,2.95
2022-09-15T01:39:25.107Z,3.17
2022-09-15T01:42:12.088Z,4.28
2022-09-15T01:45:00.087Z,4.40
2022-09-15T01:47:47.298Z,3.90
2022-09-15T01:50:34.022Z,3.45
2022-09-15T01:53:20.036Z,2.58
2022-09-15T01:56:06.836Z,3.63
2022-09-15T01:58:51.824Z,3.45
2022-09-15T02:01:43.222Z,3.38
2022-09-15T02:04:34.875Z,3.85
2022-09-15T02:07:27.654Z,2.97
2022-09-15T02:10:18.227Z,3.15
2022-09-15T02:13:07.717Z,4.88
2022-09-15T02:15:57.193Z,4.38
2022-09-15T02:18:45.311Z,2.78
2022-09-15T02:21:36.309Z,3.20
2022-09-15T02:24:24.290Z,2.70
2022-09-15T02:27:11.357Z,3.97
2022-09-15T02:29:59.012Z,5.28
2022-09-15T02:32:48.131Z,2.90
2022-09-15T02:35:34.863Z,3.50
2022-09-15T02:38:20.124Z,3.92
2022-09-15T02:41:03.830Z,3.45
2022-09-15T02:43:47.848Z,4.47
2022-09-15T02:46:31.163Z,3.28
2022-09-15T02:49:14.191Z,3.80
2022-09-15T02:51:57.219Z,5.80
2022-09-15T02:54:41.486Z,3.97
2022-09-15T02:57:24.402Z,3.08
2022-09-15T03:00:14.835Z,3.70
2022-09-15T03:02:58.358Z,6.70
2022-09-15T03:05:41.380Z,8.82
2022-09-15T03:08:24.335Z,8.13
2022-09-15T03:11:10.881Z,5.03
2022-09-15T03:13:55.716Z,4.72
2022-09-15T03:19:21.483Z,5.75
2022-09-15T03:22:04.912Z,4.22
2022-09-15T03:24:48.002Z,6.03
2022-09-15T03:27:32.619Z,5.35
2022-09-15T03:30:16.089Z,4.25
2022-09-15T03:32:59.134Z,4.78
2022-09-15T03:35:42.065Z,4.95
2022-09-15T03:38:25.204Z,5.10
2022-09-15T03:41:10.979Z,5.95
2022-09-15T03:43:55.487Z,4.57
2022-09-15T03:46:38.462Z,6.90
2022-09-15T03:49:21.582Z,5.47
2022-09-15T03:52:04.607Z,6.35
2022-09-15T03:54:49.251Z,2.97
2022-09-15T03:57:32.140Z,7.03
2022-09-15T04:00:16.954Z,5.57
2022-09-15T04:02:59.869Z,6.28
2022-09-15T04:05:43.253Z,3.03
2022-09-15T04:08:26.336Z,8.27
2022-09-15T04:11:10.620Z,2.47
2022-09-15T04:13:54.568Z,2.70
2022-09-15T04:16:39.191Z,2.20
2022-09-15T04:19:22.209Z,3.10
2022-09-15T04:22:05.403Z,2.30
2022-09-15T04:24:48.744Z,1.50
2022-09-15T04:27:34.401Z,1.52
2022-09-15T04:30:17.407Z,1.50
2022-09-15T04:33:01.692Z,1.60
2022-09-15T04:35:44.699Z,1.05
2022-09-15T04:38:27.638Z,2.10
2022-09-15T04:41:11.438Z,1.08
2022-09-15T04:43:54.622Z,1.98
2022-09-15T04:46:37.724Z,1.00
2022-09-15T04:49:22.140Z,1.77
2022-09-15T04:52:09.464Z,1.38
2022-09-15T04:54:52.682Z,2.08
2022-09-15T04:57:35.627Z,2.60
2022-09-15T05:00:18.817Z,2.38
2022-09-15T05:03:02.039Z,2.95
2022-09-15T05:05:49.003Z,3.42
2022-09-15T05:08:32.035Z,2.75
2022-09-15T05:11:15.153Z,3.50
2022-09-15T05:13:58.247Z,4.75
2022-09-15T05:16:41.403Z,5.38
2022-09-15T05:19:24.625Z,4.80
2022-09-15T05:22:08.985Z,3.78
2022-09-15T05:24:52.054Z,3.22
2022-09-15T05:27:35.047Z,4.93
2022-09-15T05:30:36.838Z,4.65
2022-09-15T05:33:21.914Z,4.22
2022-09-15T05:36:05.631Z,2.55
2022-09-15T05:38:50.083Z,5.68
2022-09-15T05:41:33.162Z,3.63
2022-09-15T05:44:16.463Z,2.63
2022-09-15T05:46:59.636Z,2.70
2022-09-15T05:49:42.650Z,3.50
2022-09-15T05:52:25.569Z,4.57
2022-09-15T05:55:10.653Z,3.75
2022-09-15T05:57:53.713Z,2.75
2022-09-15T06:00:37.102Z,2.55
2022-09-15T06:03:21.088Z,2.60
2022-09-15T06:06:05.730Z,4.18
2022-09-15T06:08:54.212Z,5.13
2022-09-15T06:11:41.937Z,2.10
2022-09-15T06:14:24.938Z,1.73
2022-09-15T06:17:07.976Z,2.80
2022-09-15T06:19:50.918Z,5.68
2022-09-15T06:22:33.979Z,3.10
2022-09-15T06:25:17.162Z,4.00
2022-09-15T06:28:01.483Z,1.98
2022-09-15T06:30:48.943Z,3.20
2022-09-15T06:33:32.058Z,3.50
2022-09-15T06:36:16.282Z,2.80
2022-09-15T06:39:00.082Z,3.30
2022-09-15T06:42:01.430Z,4.47
2022-09-15T06:44:46.499Z,2.47
2022-09-15T06:47:33.881Z,2.25
2022-09-15T06:50:16.934Z,2.10
2022-09-15T06:52:59.870Z,2.53
2022-09-15T06:55:42.895Z,2.40
2022-09-15T06:58:25.811Z,3.67
2022-09-15T07:01:12.347Z,3.20
2022-09-15T07:03:56.563Z,4.90
2022-09-15T07:06:40.851Z,3.47
2022-09-15T07:09:23.781Z,2.50
2022-09-15T07:12:07.014Z,3.33
2022-09-15T07:14:49.980Z,2.33
2022-09-15T07:17:34.219Z,2.60
2022-09-15T07:20:17.367Z,2.15
2022-09-15T07:23:00.292Z,2.00
2022-09-15T07:25:44.150Z,3.45
2022-09-15T07:28:27.090Z,2.92
2022-09-15T07:31:12.303Z,3.17
2022-09-15T07:33:57.218Z,3.50
2022-09-15T07:36:40.140Z,5.95
2022-09-15T07:39:23.187Z,5.22
2022-09-15T07:42:06.410Z,2.20
2022-09-15T07:44:49.269Z,5.18
2022-09-15T07:47:32.285Z,3.78
2022-09-15T07:50:16.771Z,3.35
2022-09-15T07:52:59.679Z,2.35
2022-09-15T07:55:42.712Z,4.10
2022-09-15T07:58:26.008Z,2.95
2022-09-15T08:01:12.058Z,4.50
2022-09-15T08:03:55.075Z,3.63
2022-09-15T08:06:39.345Z,3.30
2022-09-15T08:09:22.310Z,4.40
2022-09-15T08:12:06.783Z,2.65
2022-09-15T08:14:49.684Z,3.95
2022-09-15T08:17:32.614Z,3.78
2022-09-15T08:20:15.626Z,3.72
2022-09-15T08:23:00.338Z,5.55
2022-09-15T08:25:43.233Z,3.58
2022-09-15T08:28:26.887Z,4.15
2022-09-15T08:31:11.510Z,3.28
2022-09-15T08:36:39.067Z,4.10
2022-09-15T08:39:23.644Z,5.32
2022-09-15T08:42:07.390Z,4.45
2022-09-15T08:44:55.471Z,4.47
2022-09-15T08:47:42.181Z,2.42
2022-09-15T08:50:29.864Z,5.43
2022-09-15T08:53:18.146Z,6.72
2022-09-15T08:56:09.997Z,3.85
2022-09-15T08:58:53.195Z,2.60
2022-09-15T09:01:47.971Z,4.13
2022-09-15T09:04:49.085Z,3.53
2022-09-15T09:08:02.211Z,2.42
2022-09-15T09:10:52.780Z,3.45
2022-09-15T09:13:44.034Z,3.53
2022-09-15T09:16:39.427Z,2.38
2022-09-15T09:19:35.988Z,2.67
2022-09-15T09:22:23.983Z,3.45
2022-09-15T09:25:26.136Z,2.67
2022-09-15T09:28:25.041Z,3.17
2022-09-15T09:31:21.043Z,3.20
2022-09-15T09:34:16.790Z,4.07
2022-09-15T09:37:01.553Z,3.60
2022-09-15T09:42:31.205Z,2.35
2022-09-15T09:45:16.284Z,1.90
2022-09-15T09:48:04.401Z,1.80
2022-09-15T09:50:47.974Z,2.83
2022-09-15T09:53:32.785Z,1.75
2022-09-15T09:59:01.416Z,3.10
2022-09-15T10:02:14.381Z,2.80
2022-09-15T10:05:19.626Z,4.70
2022-09-15T10:08:03.402Z,2.97
2022-09-15T10:10:54.100Z,3.20
2022-09-15T10:13:50.311Z,1.63
2022-09-15T10:16:34.389Z,2.05
2022-09-15T10:19:17.372Z,2.53
2022-09-15T10:22:02.884Z,2.20
2022-09-15T10:24:45.985Z,2.88
2022-09-15T10:27:31.997Z,1.27
2022-09-15T10:30:18.999Z,2.83
2022-09-15T10:33:19.789Z,1.67
2022-09-15T10:36:06.210Z,2.20
2022-09-15T10:38:57.396Z,1.38
2022-09-15T10:41:46.896Z,1.33
2022-09-15T10:44:39.314Z,3.45
2022-09-15T10:47:32.032Z,1.63
2022-09-15T10:50:22.262Z,2.15
2022-09-15T10:53:17.922Z,3.58
2022-09-15T10:56:13.303Z,2.35
2022-09-15T10:59:21.722Z,1.80
2022-09-15T11:02:33.785Z,1.70
2022-09-15T11:05:39.586Z,1.88
2022-09-15T11:08:59.581Z,2.25
2022-09-15T11:11:58.403Z,1.38
2022-09-15T11:14:53.031Z,1.95
2022-09-15T11:17:49.207Z,1.20
2022-09-15T11:20:40.744Z,2.33
2022-09-15T11:23:29.437Z,2.35
2022-09-15T11:26:18.369Z,1.60
2022-09-15T11:29:08.677Z,1.30
2022-09-15T11:31:57.464Z,1.33
2022-09-15T11:34:48.317Z,0.55
2022-09-15T11:37:39.181Z,0.70
2022-09-15T11:40:28.553Z,0.63
2022-09-15T11:43:19.703Z,0.30
2022-09-15T11:46:12.563Z,1.05
2022-09-15T11:49:00.889Z,0.75
2022-09-15T11:51:50.668Z,1.40
2022-09-15T11:54:41.275Z,0.30
2022-09-15T11:57:28.026Z,0.38
2022-09-15T12:00:14.668Z,0.20
2022-09-15T12:03:14.866Z,0.30
2022-09-15T12:06:01.962Z,0.40
2022-09-15T12:08:51.285Z,0.25
2022-09-15T12:11:37.834Z,0.60
2022-09-15T12:14:29.007Z,1.00
2022-09-15T12:17:19.650Z,0.80
2022-09-15T12:20:09.070Z,0.73
2022-09-15T12:22:58.793Z,0.90
2022-09-15T12:25:52.130Z,1.00
2022-09-15T12:28:41.128Z,0.80
2022-09-15T12:31:42.411Z,0.70
2022-09-15T12:34:37.410Z,1.70
2022-09-15T12:37:21.797Z,0.50
2022-09-15T12:40:08.071Z,0.35
2022-09-15T12:42:51.178Z,0.85
2022-09-15T12:45:36.874Z,0.77
2022-09-15T12:48:23.708Z,0.68
2022-09-15T12:51:10.815Z,0.50
2022-09-15T12:53:57.894Z,0.40
2022-09-15T12:56:40.873Z,1.42
2022-09-15T12:59:26.814Z,0.85
2022-09-15T13:02:45.186Z,0.40
2022-09-15T13:05:53.602Z,0.65
2022-09-15T13:08:49.294Z,0.68
2022-09-15T13:11:40.427Z,0.40
2022-09-15T13:14:29.318Z,0.60
2022-09-15T13:17:17.142Z,0.75
2022-09-15T13:20:08.934Z,0.52
2022-09-15T13:22:56.484Z,0.82
2022-09-15T13:25:44.874Z,0.50
2022-09-15T13:28:30.063Z,0.50
2022-09-15T13:31:29.997Z,0.35
2022-09-15T13:38:22.686Z,0.60
2022-09-15T13:41:42.971Z,0.65
2022-09-15T13:44:59.014Z,0.52
2022-09-15T13:47:55.944Z,0.50
2022-09-15T13:50:42.892Z,0.30
2022-09-15T13:53:42.660Z,0.30
2022-09-15T13:56:28.808Z,0.43
2022-09-15T13:59:18.135Z,0.45
2022-09-15T14:02:09.643Z,0.32
2022-09-15T14:04:52.843Z,0.30
2022-09-15T14:07:35.884Z,0.77
2022-09-15T14:10:24.198Z,0.32
2022-09-15T14:13:07.207Z,0.43
2022-09-15T14:16:01.543Z,0.38
2022-09-15T14:18:47.318Z,0.30
2022-09-15T14:21:33.083Z,0.30
2022-09-15T14:24:22.085Z,0.40
2022-09-15T14:27:10.814Z,0.40
2022-09-15T14:29:57.815Z,0.40
2022-09-15T14:32:46.683Z,1.20
2022-09-15T14:35:38.110Z,0.85
2022-09-15T14:38:23.688Z,0.45
2022-09-15T14:41:07.418Z,1.33
2022-09-15T14:43:50.316Z,1.52
2022-09-15T14:46:39.087Z,3.08
2022-09-15T14:49:22.714Z,1.00
2022-09-15T14:52:23.115Z,0.50
2022-09-15T14:55:13.479Z,1.02
2022-09-15T14:58:00.812Z,0.30
2022-09-15T15:00:52.995Z,0.80
2022-09-15T15:03:43.451Z,0.95
2022-09-15T15:06:31.775Z,0.60
2022-09-15T15:09:22.434Z,0.30
2022-09-15T15:12:08.472Z,0.57
2022-09-15T15:14:54.023Z,0.45
2022-09-15T15:17:38.928Z,0.45
2022-09-15T15:20:23.964Z,0.50
2022-09-15T15:23:17.860Z,0.30
2022-09-15T15:26:33.983Z,0.43
2022-09-15T15:29:40.381Z,0.38
2022-09-15T15:32:25.593Z,0.57
2022-09-15T15:35:18.746Z,0.55
2022-09-15T15:38:08.212Z,0.20
2022-09-15T15:41:01.244Z,0.63
2022-09-15T15:43:58.002Z,0.40
2022-09-15T15:46:49.853Z,0.68
2022-09-15T15:49:33.587Z,0.38
2022-09-15T15:52:16.581Z,1.75
2022-09-15T15:54:59.552Z,0.60
2022-09-15T15:57:42.464Z,0.90
2022-09-15T16:00:33.042Z,0.52
2022-09-15T16:03:17.834Z,1.35
2022-09-15T16:06:02.984Z,0.70
2022-09-15T16:08:47.318Z,0.50
2022-09-15T16:11:30.298Z,0.68
2022-09-15T16:14:14.425Z,0.80
2022-09-15T16:16:58.792Z,1.13
2022-09-15T16:19:41.851Z,7.88
2022-09-15T16:22:24.850Z,9.43
2022-09-15T16:25:15.823Z,12.80
2022-09-15T16:27:59.931Z,6.63
2022-09-15T16:30:43.049Z,2.17
2022-09-15T16:33:28.077Z,1.00
2022-09-15T16:36:13.407Z,0.85
2022-09-15T16:38:56.348Z,0.75
2022-09-15T16:41:40.379Z,0.43
2022-09-15T16:44:23.324Z,0.63
2022-09-15T16:47:07.198Z,0.70
2022-09-15T16:49:52.642Z,0.87
2022-09-15T16:52:35.578Z,2.22
2022-09-15T16:55:24.762Z,4.45
2022-09-15T16:58:08.390Z,0.82
2022-09-15T17:00:53.676Z,1.50
2022-09-15T17:03:36.842Z,1.40
2022-09-15T17:06:22.157Z,0.93
2022-09-15T17:09:05.508Z,1.70
2022-09-15T17:11:48.361Z,1.23
2022-09-15T17:14:31.299Z,1.73
2022-09-15T17:17:24.829Z,2.33
2022-09-15T17:20:08.855Z,1.45
2022-09-15T17:22:54.085Z,0.60
2022-09-15T17:25:41.197Z,2.50
2022-09-15T17:28:26.181Z,1.60
2022-09-15T17:31:14.423Z,1.15
2022-09-15T17:33:58.063Z,5.32
2022-09-15T17:36:41.042Z,5.47
2022-09-15T17:39:25.403Z,2.10
2022-09-15T17:42:10.431Z,1.00
2022-09-15T17:44:53.341Z,1.15
2022-09-15T17:47:37.165Z,1.88
2022-09-15T17:50:22.178Z,1.90
2022-09-15T17:53:12.786Z,3.33
2022-09-15T17:55:57.226Z,1.70
2022-09-15T17:58:40.169Z,2.40
2022-09-15T18:01:23.150Z,2.20
2022-09-15T18:04:06.524Z,1.77
2022-09-15T18:06:49.484Z,2.25
2022-09-15T18:09:32.533Z,1.63
2022-09-15T18:12:17.133Z,3.65
2022-09-15T18:15:00.084Z,3.72
2022-09-15T18:17:43.618Z,2.47
2022-09-15T18:20:28.483Z,1.20
2022-09-15T18:23:16.462Z,2.22
2022-09-15T18:25:59.627Z,2.75
2022-09-15T18:28:43.922Z,4.68
2022-09-15T18:31:27.007Z,2.55
2022-09-15T18:34:10.345Z,1.92
2022-09-15T18:36:53.379Z,2.15
2022-09-15T18:39:37.378Z,1.30
2022-09-15T18:42:20.320Z,1.63
2022-09-15T18:45:05.465Z,2.22
2022-09-15T18:47:49.173Z,1.50
2022-09-15T18:50:32.178Z,2.20
2022-09-15T18:53:15.171Z,2.70
2022-09-15T18:55:58.045Z,1.80
2022-09-15T18:58:41.419Z,3.83
2022-09-15T19:01:25.886Z,1.90
2022-09-15T19:04:08.984Z,2.47
2022-09-15T19:06:51.940Z,2.30
2022-09-15T19:09:35.083Z,3.38
2022-09-15T19:12:18.072Z,6.45
2022-09-15T19:15:00.942Z,1.60
2022-09-15T19:17:45.457Z,2.88
2022-09-15T19:20:29.186Z,2.65
2022-09-15T19:23:12.146Z,2.23
2022-09-15T19:25:55.304Z,5.35
2022-09-15T19:28:38.202Z,3.33
2022-09-15T19:31:21.793Z,3.20
2022-09-15T19:34:06.380Z,3.53
2022-09-15T19:36:49.324Z,4.20
2022-09-15T19:39:32.318Z,3.80
2022-09-15T19:45:03.831Z,3.45
2022-09-15T19:47:46.829Z,3.33
2022-09-15T19:50:31.111Z,4.00
2022-09-15T19:53:14.008Z,3.83
2022-09-15T19:55:57.288Z,4.10
2022-09-15T19:58:40.442Z,3.15
2022-09-15T20:01:24.288Z,3.63
2022-09-15T20:04:08.210Z,3.70
2022-09-15T20:06:52.666Z,5.63
2022-09-15T20:09:35.708Z,3.08
2022-09-15T20:12:18.630Z,5.45
2022-09-15T20:15:01.560Z,6.00
2022-09-15T20:17:44.457Z,4.53
2022-09-15T20:20:27.391Z,5.75
2022-09-15T20:23:11.730Z,6.78
2022-09-15T20:25:58.703Z,5.50
2022-09-15T20:28:42.443Z,5.30
2022-09-15T20:31:27.099Z,5.53
2022-09-15T20:34:10.185Z,4.50
2022-09-15T20:36:53.153Z,3.50
2022-09-15T20:39:38.127Z,4.05
2022-09-15T20:42:20.997Z,3.33
2022-09-15T20:45:04.246Z,3.25
2022-09-15T20:47:47.396Z,4.93
2022-09-15T20:50:32.087Z,3.20
2022-09-15T20:55:59.957Z,3.58
2022-09-15T20:58:43.279Z,4.47
2022-09-15T21:01:28.617Z,3.13
2022-09-15T21:04:12.487Z,3.90
2022-09-15T21:06:55.471Z,3.00
2022-09-15T21:09:38.379Z,2.53
2022-09-15T21:12:22.687Z,3.67
2022-09-15T21:15:06.695Z,4.07
2022-09-15T21:17:49.896Z,3.40
2022-09-15T21:20:32.782Z,3.90
2022-09-15T21:23:17.376Z,3.08
2022-09-15T21:26:02.214Z,2.97
2022-09-15T21:28:47.220Z,2.80
2022-09-15T21:31:32.800Z,3.63
2022-09-15T21:34:16.999Z,4.13
2022-09-15T21:37:00.086Z,2.40
2022-09-15T21:39:43.134Z,2.95
2022-09-15T21:42:26.589Z,2.85
2022-09-15T21:45:11.530Z,5.25
2022-09-15T21:47:54.414Z,3.10
2022-09-15T21:50:37.477Z,3.92
2022-09-15T21:53:21.074Z,5.15
2022-09-15T21:56:05.105Z,4.00
2022-09-15T21:58:47.987Z,2.75
2022-09-15T22:01:33.886Z,4.97
2022-09-15T22:04:17.010Z,3.33
2022-09-15T22:06:59.923Z,3.20
2022-09-15T22:09:43.302Z,2.25
2022-09-15T22:12:26.300Z,2.63
2022-09-15T22:15:10.084Z,2.92
2022-09-15T22:17:54.740Z,3.47
2022-09-15T22:20:37.690Z,3.20
2022-09-15T22:23:20.635Z,2.42
2022-09-15T22:26:04.331Z,2.33
2022-09-15T22:28:47.836Z,2.58
2022-09-15T22:31:31.538Z,2.80
2022-09-15T22:34:15.861Z,4.90
2022-09-15T22:36:59.025Z,3.42
2022-09-15T22:39:58.619Z,2.38
2022-09-15T22:42:42.326Z,2.33
2022-09-15T22:45:25.305Z,3.55
2022-09-15T22:48:08.214Z,3.47
2022-09-15T22:50:52.465Z,3.35
2022-09-15T22:53:35.658Z,3.22
2022-09-15T22:56:19.898Z,3.30
2022-09-15T22:59:02.873Z,4.63
2022-09-15T23:01:45.949Z,8.13
2022-09-15T23:04:29.185Z,7.38
2022-09-15T23:07:14.459Z,5.07
2022-09-15T23:09:58.715Z,6.50
2022-09-15T23:12:42.015Z,3.90
2022-09-15T23:15:24.931Z,7.10
2022-09-15T23:18:07.873Z,4.85
2022-09-15T23:20:56.884Z,6.32
2022-09-15T23:23:43.211Z,3.83
2022-09-15T23:26:27.454Z,4.72
2022-09-15T23:29:10.619Z,6.22
2022-09-15T23:31:53.708Z,3.70
2022-09-15T23:34:36.748Z,4.40
2022-09-15T23:37:19.753Z,5.82
2022-09-15T23:40:04.623Z,4.57
2022-09-15T23:42:47.653Z,3.90
2022-09-15T23:45:30.664Z,5.70
2022-09-15T23:48:14.906Z,4.18
2022-09-15T23:50:58.241Z,2.55
2022-09-15T23:53:41.235Z,3.42
2022-09-15T23:56:25.658Z,5.38
2022-09-15T23:59:08.569Z,3.95
